Agate Beach, Washington
Current Conditions -  °F | °C
As of 6:00 PM on Friday 24 Oct 2014 (Local Time) from CYWH Reporting Station
Overcast Overcast  
Wind Chill: 12°   Ceiling: 14000
Heat Index: 12°   Visibility: 15mi
Dew Point:   Wind: 7mph
Humidity: 77%   Direction: 10°N
Pressure: 29.91"   Gusts: NA
Location:  48.1359°N, 123.734°W
Report Text: CYWH 250100Z 01006KT 15SM BKN140 OVC240 12/08 A2991 RMK AC5CS3SLP128
Loading
Personal Weather Stations






























Interactive Weather Map
Tropical Storm Tracking
New forecast layout! Learn more

10-Day Weather Forecast

Advertisements
Track Severe Weather on mobile